Terminal Aerodrome Forecast
Issued by NWS

Home | Current Version | Previous Version | Text Only | Print | Product List | Glossary On
Versions: 1 2 3 4 5 6 7 8 9 10 11 12 13 14 15 16 17
084
FTUS41 KCAR 200520
TAFPQI
TAF
KPQI 200520Z 2006/2106 28008KT P6SM FEW035 OVC060
     FM201700 VRB02KT P6SM BKN070 OVC100
     FM210400 16003KT P6SM OVC035=

USA.gov is the U.S. government's official web portal to all federal, state and local government web resources and services.